Port Huron Township, Michigan
Current Conditions -  °F | °C
As of 5:18 PM on Wednesday 28 Jan 2015 (Local Time) from KPHN Reporting Station
Clear Clear  
Wind Chill: 16°   Ceiling: Unl
Heat Index: 25°   Visibility: 10mi
Dew Point: 12°   Wind: 8mph
Humidity: 59%   Direction: 170°S
Pressure: 30.26"   Gusts: NA
Location:  42.9793°N, 82.4643°W
Report Text: KPHN 282218Z AUTO 17007KT 10SM CLR M04/M11 A3026 RMK AO2
Loading
Personal Weather Stations






























Interactive Weather Map New forecast layout! Learn more

10-Day Weather Forecast

Advertisements
Track Severe Weather on mobile